Flight Track Log - Related Links

Times and Time Zones

All times are in EST time to prevent confusion due to time zone crossing. See the AWE1705 flight status page for this flight to view local times or setup timezone preferences in your user account.

Time Position Orientation Groundspeed Altitude Reporting Facility
EST Latitude Longitude Course Direction KTS MPH feet Rate Location/Type
Wed 06:59:57 AM 26.7628 -80.2861 323° Northwest 289 333 6,900  Level Miami Center
Wed 07:00:00 AM 26.8500 -80.3006 270° West  Level FlightAware Approximate
Wed 07:00:57 AM 26.8353 -80.3183 338° Northwest 279 321 10,100  Level Miami Center
Wed 07:01:00 AM 26.9386 -80.3609 336° Northwest  Level FlightAware Approximate
Wed 07:01:57 AM 26.9117 -80.3556 337° Northwest 288 331 11,300  Level Miami Center
Wed 07:02:00 AM 27.0402 -80.4118 336° Northwest  Level FlightAware Approximate
Wed 07:02:57 AM 27.0044 -80.3981 338° Northwest 330 380 13,200  Level Miami Center
Wed 07:03:00 AM 27.1419 -80.4626 336° Northwest  Level FlightAware Approximate
Wed 07:03:57 AM 27.0850 -80.4378 336° Northwest 357 411 16,200  Level Miami Center
Wed 07:04:00 AM 27.2323 -80.5352 323° Northwest  Level FlightAware Approximate
Wed 07:04:57 AM 27.1775 -80.4944 331° Northwest 357 411 17,900  Level Miami Center
Wed 07:05:57 AM 27.2761 -80.5606 329° Northwest 383 441 19,100 1,850 Climbing Miami Center
Wed 07:06:57 AM 27.3811 -80.6200 333° Northwest 405 466 21,600 2,150 Climbing Miami Center
Wed 07:07:57 AM 27.4817 -80.6842 330° Northwest 416 479 23,400 1,700 Climbing Miami Center
Wed 07:08:57 AM 27.5906 -80.7486 332° Northwest 422 486 25,000 1,450 Climbing Miami Center
Wed 07:09:57 AM 27.6994 -80.8133 332° Northwest 427 491 26,300 1,700 Climbing Miami Center
Wed 07:10:57 AM 27.8122 -80.8808 332° Northwest 437 503 28,400 2,050 Climbing Miami Center
Wed 07:11:57 AM 27.9147 -80.9453 331° Northwest 431 496 30,400 1,600 Climbing Miami Center
Wed 07:12:57 AM 28.0339 -81.0178 332° Northwest 425 489 31,600 1,300 Climbing Miami Center
Wed 07:13:57 AM 28.1364 -81.0828 331° Northwest 434 499 33,000 1,300 Climbing Miami Center
Wed 07:14:57 AM 28.2325 -81.1453 330° Northwest 434 499 34,200 1,000 Climbing Miami Center
Wed 07:15:57 AM 28.3308 -81.2058 332° Northwest 418 481 35,000 400 Climbing Miami Center
Wed 07:16:57 AM 28.4433 -81.2761 331° Northwest 411 473 35,000  Level Miami Center
Wed 07:18:14 AM 28.5683 -81.3394 336° Northwest 414 476 35,000  Level Jacksonville Center
Wed 07:19:14 AM 28.6894 -81.3519 355° North 419 482 35,000  Level Jacksonville Center
Wed 07:20:14 AM 28.8108 -81.3619 356° North 425 489 35,000  Level Jacksonville Center
Wed 07:21:14 AM 28.9297 -81.3742 355° North 435 501 35,000  Level Jacksonville Center
Wed 07:22:14 AM 29.0531 -81.3842 356° North 435 501 35,000  Level Jacksonville Center
Wed 07:23:14 AM 29.1742 -81.3967 355° North 440 506 35,000  Level Jacksonville Center
Wed 07:24:14 AM 29.2997 -81.4067 356° North 440 506 35,000  Level Jacksonville Center
Wed 07:25:14 AM 29.4314 -81.4239 354° North 440 506 35,000  Level Jacksonville Center
Wed 07:26:14 AM 29.5525 -81.4314 357° North 439 505 35,000  Level Jacksonville Center
Wed 07:27:14 AM 29.6758 -81.4417 356° North 439 505 35,000  Level Jacksonville Center
Wed 07:28:14 AM 29.7992 -81.4542 355° North 444 511 35,000  Level Jacksonville Center
Wed 07:29:14 AM 29.9203 -81.4667 355° North 444 511 35,000  Level Jacksonville Center
Wed 07:30:14 AM 30.0436 -81.4792 355° North 444 511 35,000  Level Jacksonville Center
Wed 07:31:14 AM 30.1628 -81.4894 356° North 439 505 35,000  Level Jacksonville Center
Wed 07:32:14 AM 30.2861 -81.5022 355° North 439 505 35,000  Level Jacksonville Center
Wed 07:33:14 AM 30.4114 -81.5053 359° North 444 511 35,000  Level Jacksonville Center
Wed 07:34:14 AM 30.5344 -81.4936 North 439 505 35,000  Level Jacksonville Center
Wed 07:35:14 AM 30.6617 -81.4822 North 439 505 35,000  Level Jacksonville Center
Wed 07:36:14 AM 30.7828 -81.4731 North 444 511 35,000  Level Jacksonville Center
Wed 07:37:14 AM 30.9097 -81.4469 10° North 444 511 35,000  Level Jacksonville Center
Wed 07:38:14 AM 31.0303 -81.3894 22° Northeast 450 518 35,000  Level Jacksonville Center
Wed 07:39:14 AM 31.1444 -81.3414 20° North 470 541 35,000  Level Jacksonville Center
Wed 07:40:14 AM 31.2669 -81.2861 21° North 470 541 35,000  Level Jacksonville Center
Wed 07:41:14 AM 31.3728 -81.2403 20° North 342 394 35,000  Level Jacksonville Center
Wed 07:42:14 AM 31.5078 -81.1794 21° North 422 486 35,000  Level Jacksonville Center
Wed 07:43:14 AM 31.6281 -81.1236 22° Northeast 474 545 35,000  Level Jacksonville Center
Wed 07:44:14 AM 31.7422 -81.0725 21° North 474 545 35,000  Level Jacksonville Center
Wed 07:45:14 AM 31.8769 -81.0089 22° Northeast 474 545 35,000  Level Jacksonville Center
Wed 07:46:14 AM 32.0242 -80.9419 21° North 532 612 35,000  Level Jacksonville Center
Wed 07:47:14 AM 32.1278 -80.8933 22° Northeast 408 470 35,000  Level Jacksonville Center
Wed 07:48:14 AM 32.2500 -80.8389 21° North 452 520 35,000  Level Jacksonville Center
Wed 07:49:14 AM 32.3578 -80.7875 22° Northeast 400 460 35,000  Level Jacksonville Center
Wed 07:50:14 AM 32.5111 -80.7150 22° Northeast 442 509 35,000  Level Jacksonville Center
Wed 07:51:14 AM 32.6333 -80.6578 22° Northeast 452 520 35,000 -50 Level Jacksonville Center
Wed 07:52:14 AM 32.7511 -80.6028 21° North 457 526 34,900 -550 Descending Jacksonville Center
Wed 07:53:14 AM 32.8714 -80.5478 21° North 457 526 33,900 -1,000 Descending Jacksonville Center
Wed 07:54:14 AM 32.9914 -80.4928 21° North 457 526 32,900 -1,000 Descending Jacksonville Center
Wed 07:55:14 AM 33.1133 -80.4375 21° North 463 533 31,900 -1,050 Descending Jacksonville Center
Wed 07:56:14 AM 33.2353 -80.3769 23° Northeast 468 539 30,800 -1,050 Descending Jacksonville Center
Wed 07:57:14 AM 33.3511 -80.3214 22° Northeast 456 525 29,800 -1,000 Descending Jacksonville Center
Wed 07:58:14 AM 33.4647 -80.2683 21° North 448 516 28,800 -1,500 Descending Jacksonville Center
Wed 07:59:14 AM 33.5806 -80.2125 22° Northeast 448 516 26,800 -1,900 Descending Jacksonville Center
Wed 08:00:14 AM 33.6775 -80.1647 22° Northeast 443 510 25,000 -1,400 Descending Jacksonville Center
Wed 08:01:14 AM 33.7653 -80.0719 41° Northeast 418 481 24,000 -500 Descending Jacksonville Center
Wed 08:02:14 AM 33.7228 -79.9436 112° Southeast 336 387 24,000 -50 Level Jacksonville Center
Wed 08:03:14 AM 33.6264 -79.9369 177° South 227 261 23,900  Descending Jacksonville Center
Wed 08:04:14 AM 33.5503 -79.9767 204° Southwest 224 258 24,000 50 Climbing Jacksonville Center
Wed 08:05:14 AM 33.5122 -80.0528 239° Southwest 227 261 24,000 -100 Level Jacksonville Center
Wed 08:06:14 AM 33.5725 -80.1306 313° West 206 237 23,800 -950 Descending Jacksonville Center
Wed 08:07:14 AM 33.6689 -80.1525 349° North 266 306 22,100 -1,850 Descending Jacksonville Center
Wed 08:08:14 AM 33.7703 -80.1094 19° North 302 348 20,100 -1,050 Descending Jacksonville Center
Wed 08:09:14 AM 33.8625 -80.0414 31° Northeast 345 397 20,000 -50 Descending Jacksonville Center
Wed 08:10:14 AM 33.9581 -80.0133 14° North 351 404 20,000  Level Jacksonville Center
Wed 08:11:14 AM 34.0381 -80.0533 337° Northwest 316 364 20,000  Level Jacksonville Center
Wed 08:12:14 AM 34.1225 -80.0881 341° North 311 358 20,000  Level Jacksonville Center
Wed 08:13:14 AM 34.2047 -80.1256 339° North 316 364 20,000 -150 Level Jacksonville Center
Wed 08:14:14 AM 34.2994 -80.1653 341° North 316 364 19,700 -1,000 Descending Jacksonville Center
Wed 08:15:14 AM 34.3794 -80.2031 339° North 311 358 18,000 -1,500 Descending Jacksonville Center
Wed 08:16:14 AM 34.4553 -80.2361 340° North 305 351 16,700 -1,602 Descending Jacksonville Center
Wed 08:18:10 AM 34.5992 -80.2964 341° North 294 338 13,300 -1,773 Descending Atlanta Center
Wed 08:19:10 AM 34.6775 -80.3333 339° North 291 335 11,500 -1,091 Descending Atlanta Center
Wed 08:20:11 AM 34.7397 -80.3939 321° Northwest 266 306 11,100 -656 Descending Atlanta Center
Wed 08:21:18 AM 34.7961 -80.4597 316° Northwest 264 304 10,100 -1,377 Descending Atlanta Center
Wed 08:22:13 AM 34.8458 -80.5183 316° Northwest 269 310 8,300 -984 Descending Atlanta Center
Wed 08:23:20 AM 34.8358 -80.6150 263° West 259 298 8,100 -94 Descending Atlanta Center
Wed 08:24:21 AM 34.7897 -80.6800 229° Southwest 263 303 8,100  Level Atlanta Center
Wed 08:25:22 AM 34.7731 -80.7617 256° West 258 297 8,100 -49 Level Atlanta Center
Wed 08:26:23 AM 34.7817 -80.8472 277° West 255 293 8,000 -49 Descending Atlanta Center
Wed 08:27:25 AM 34.8208 -80.9064 309° West 223 257 8,000 -465 Level Atlanta Center
Wed 08:28:32 AM 34.8881 -80.9267 346° North 227 261 7,000 -1,078 Descending Atlanta Center
Wed 08:29:33 AM 34.9508 -80.9319 356° North 231 266 5,700 -1,279 Descending Atlanta Center
Wed 08:30:34 AM 35.0239 -80.9394 355° North 246 283 4,400 -1,279 Descending Atlanta Center
Wed 08:31:35 AM 35.0847 -80.9447 356° North 217 250 3,100 -1,131 Descending Atlanta Center
Wed 08:32:36 AM 35.1328 -80.9456 359° North 167 192 2,100 -885 Descending Atlanta Center
Wed 08:33:37 AM 35.1725 -80.9517 353° North 141 162 1,300 -787 Descending Atlanta Center

Login

Don't have an account? Register now (free) for customized features, flight alerts, and more!